Time;durP1;ratioP1;P1;durP2;ratioP2;P2;SDS_P1;SDS_P2;PMS_P1;PMS_P2;Temp;Humidity;BMP_temperature;BMP_pressure;BME280_temperature;BME280_humidity;BME280_pressure;Samples;Min_cycle;Max_cycle;Signal;HPM_P1;HPM_P2
2022/05/26 00:00:41;;;;;;;0.00;0.00;;;16.70;99.90;;;;;;4987005;28;20225;-74
2022/05/26 00:03:09;;;;;;;0.00;0.00;;;16.70;99.90;;;;;;4982616;28;20798;-74
2022/05/26 00:05:36;;;;;;;0.00;0.00;;;16.70;99.90;;;;;;4982741;28;20217;-74
2022/05/26 00:08:03;;;;;;;0.00;0.00;;;16.80;99.90;;;;;;4983833;28;20213;-75
2022/05/26 00:10:34;;;;;;;0.00;0.00;;;16.80;99.90;;;;;;4982517;28;20232;-74
2022/05/26 00:13:01;;;;;;;0.00;0.00;;;16.80;99.90;;;;;;4985214;28;20733;-75
2022/05/26 00:15:30;;;;;;;0.00;0.00;;;16.80;99.90;;;;;;4983443;28;20209;-74
2022/05/26 00:17:58;;;;;;;0.00;0.00;;;16.70;99.90;;;;;;4983631;28;20205;-74
2022/05/26 00:20:26;;;;;;;0.00;0.00;;;16.70;99.90;;;;;;4981821;28;20334;-75
2022/05/26 00:22:53;;;;;;;0.00;0.00;;;16.70;99.90;;;;;;4981730;28;20229;-74
2022/05/26 00:25:20;;;;;;;0.00;0.00;;;16.60;99.90;;;;;;4982244;28;20232;-75
2022/05/26 00:27:49;;;;;;;0.00;0.00;;;16.60;99.90;;;;;;4978945;28;20588;-74
2022/05/26 00:30:18;;;;;;;0.00;0.00;;;16.60;99.90;;;;;;4982112;28;20755;-74
2022/05/26 00:32:45;;;;;;;0.00;0.00;;;16.50;99.90;;;;;;4983903;28;20205;-75
2022/05/26 00:35:15;;;;;;;0.00;0.00;;;16.60;99.90;;;;;;4983829;28;20308;-74
2022/05/26 00:37:42;;;;;;;0.00;0.00;;;16.50;99.90;;;;;;4984126;28;20202;-74
2022/05/26 00:40:11;;;;;;;0.00;0.00;;;16.60;99.90;;;;;;4982183;28;20661;-75
2022/05/26 00:42:39;;;;;;;0.00;0.00;;;;;;;;;;4983578;28;20217;-75
2022/05/26 00:45:09;;;;;;;0.00;0.00;;;16.50;99.90;;;;;;4982808;28;20206;-74
2022/05/26 00:47:43;;;;;;;0.00;0.00;;;16.50;99.90;;;;;;4982137;28;20212;-74
2022/05/26 00:50:18;;;;;;;0.00;0.00;;;16.40;99.90;;;;;;4981868;28;20311;-74
2022/05/26 00:52:48;;;;;;;0.00;0.00;;;;;;;;;;4978064;28;20117;-74
2022/05/26 00:55:17;;;;;;;0.00;0.00;;;;;;;;;;4982743;28;20225;-74
2022/05/26 00:57:47;;;;;;;0.00;0.00;;;;;;;;;;4985446;28;20210;-74
2022/05/26 01:00:17;;;;;;;0.00;0.00;;;;;;;;;;4986031;28;20226;-74
2022/05/26 01:02:47;;;;;;;0.00;0.00;;;;;;;;;;4986382;28;20228;-74
2022/05/26 01:05:16;;;;;;;0.00;0.00;;;;;;;;;;4988314;28;20287;-74
2022/05/26 01:07:44;;;;;;;0.00;0.00;;;;;;;;;;4983553;28;20201;-74
2022/05/26 01:10:13;;;;;;;0.00;0.00;;;;;;;;;;4985257;28;20741;-74
2022/05/26 01:12:40;;;;;;;0.00;0.00;;;;;;;;;;4985942;28;21183;-74
2022/05/26 01:15:10;;;;;;;0.00;0.00;;;;;;;;;;4983873;28;20339;-74
2022/05/26 01:17:44;;;;;;;0.00;0.00;;;;;;;;;;4986776;28;20209;-74
2022/05/26 01:20:26;;;;;;;0.00;0.00;;;;;;;;;;4986410;28;20217;-73
2022/05/26 01:23:30;;;;;;;0.00;0.00;;;16.40;99.90;;;;;;4989023;28;20209;-73
2022/05/26 01:26:26;;;;;;;0.00;0.00;;;16.40;99.90;;;;;;4976728;28;20224;-73
2022/05/26 01:29:28;;;;;;;0.00;0.00;;;16.30;99.90;;;;;;4981176;28;20213;-73
2022/05/26 01:32:04;;;;;;;0.00;0.00;;;16.30;99.90;;;;;;4982068;28;20232;-74
2022/05/26 01:34:41;;;;;;;0.00;0.00;;;16.30;99.90;;;;;;5000899;28;20756;-73
2022/05/26 01:37:16;;;;;;;0.00;0.00;;;16.30;99.90;;;;;;4982369;28;20804;-73
2022/05/26 01:39:54;;;;;;;0.00;0.00;;;16.30;99.90;;;;;;4983023;28;20225;-73
2022/05/26 01:42:28;;;;;;;0.00;0.00;;;16.30;99.90;;;;;;4987240;28;20205;-73
2022/05/26 01:45:04;;;;;;;0.00;0.00;;;16.30;99.90;;;;;;4987893;28;20196;-74
2022/05/26 01:47:43;;;;;;;0.00;0.00;;;16.20;99.90;;;;;;4986995;28;20204;-73
2022/05/26 01:50:16;;;;;;;0.00;0.00;;;;;;;;;;4985787;28;20864;-73
2022/05/26 01:52:46;;;;;;;0.00;0.00;;;;;;;;;;4976053;28;20225;-73
2022/05/26 01:55:17;;;;;;;0.00;0.00;;;;;;;;;;4981665;28;20233;-73
2022/05/26 01:57:47;;;;;;;0.00;0.00;;;;;;;;;;4985281;28;20238;-73
2022/05/26 02:00:17;;;;;;;0.00;0.00;;;;;;;;;;4986134;28;20225;-73
2022/05/26 02:02:48;;;;;;;0.00;0.00;;;;;;;;;;4983043;28;20255;-74
2022/05/26 02:05:18;;;;;;;0.00;0.00;;;;;;;;;;4984884;28;20224;-73
2022/05/26 02:07:49;;;;;;;0.00;0.00;;;16.00;99.90;;;;;;4984917;28;20215;-73
2022/05/26 02:10:23;;;;;;;0.00;0.00;;;16.00;99.90;;;;;;4984376;28;20227;-73
2022/05/26 02:12:56;;;;;;;0.00;0.00;;;16.00;99.90;;;;;;4985173;28;20667;-73
2022/05/26 02:15:27;;;;;;;0.00;0.00;;;15.90;99.90;;;;;;4983577;28;20221;-73
2022/05/26 02:17:59;;;;;;;0.00;0.00;;;;;;;;;;4983543;28;20205;-74
2022/05/26 02:20:29;;;;;;;0.00;0.00;;;;;;;;;;4983958;28;20224;-74
2022/05/26 02:23:02;;;;;;;0.00;0.00;;;15.80;99.90;;;;;;4985067;28;20206;-73
2022/05/26 02:25:32;;;;;;;0.00;0.00;;;15.80;99.90;;;;;;4985518;28;20211;-74
2022/05/26 02:27:59;;;;;;;0.00;0.00;;;15.90;99.90;;;;;;4985708;28;20205;-73
2022/05/26 02:30:28;;;;;;;0.00;0.00;;;15.80;99.90;;;;;;4985040;28;20291;-73
2022/05/26 02:32:57;;;;;;;0.00;0.00;;;15.70;99.90;;;;;;4984342;28;20213;-73
2022/05/26 02:35:27;;;;;;;0.00;0.00;;;15.80;99.90;;;;;;4982782;28;20221;-74
2022/05/26 02:38:00;;;;;;;0.00;0.00;;;15.80;99.90;;;;;;4982755;28;20209;-73
2022/05/26 02:40:27;;;;;;;0.00;0.00;;;15.70;99.90;;;;;;4983220;28;20225;-73
2022/05/26 02:42:57;;;;;;;0.00;0.00;;;15.70;99.90;;;;;;4985267;28;20233;-73
2022/05/26 02:45:33;;;;;;;0.00;0.00;;;15.70;99.90;;;;;;4983914;28;20200;-73
2022/05/26 02:48:15;;;;;;;0.00;0.00;;;15.60;99.90;;;;;;4986010;28;20209;-73
2022/05/26 02:50:51;;;;;;;0.00;0.00;;;15.70;99.90;;;;;;4989598;28;20235;-73
2022/05/26 02:53:21;;;;;;;0.00;0.00;;;15.70;99.90;;;;;;4985600;28;20212;-73
2022/05/26 02:56:01;;;;;;;0.00;0.00;;;15.60;99.90;;;;;;4983867;28;20260;-73
2022/05/26 02:58:39;;;;;;;0.00;0.00;;;15.60;99.90;;;;;;4983053;28;20355;-73
2022/05/26 03:01:13;;;;;;;0.00;0.00;;;15.70;99.90;;;;;;4984000;28;20472;-73
2022/05/26 03:03:47;;;;;;;0.00;0.00;;;15.60;99.90;;;;;;4982958;28;20205;-73
2022/05/26 03:06:18;;;;;;;0.00;0.00;;;15.60;99.90;;;;;;4983400;28;20312;-73
2022/05/26 03:08:47;;;;;;;0.00;0.00;;;15.70;99.90;;;;;;4983999;28;20232;-73
2022/05/26 03:11:19;;;;;;;0.00;0.00;;;15.60;99.90;;;;;;4984885;28;20221;-74
2022/05/26 03:13:46;;;;;;;0.00;0.00;;;15.60;99.90;;;;;;4986939;28;20197;-74
2022/05/26 03:16:14;;;;;;;0.00;0.00;;;15.60;99.90;;;;;;4982394;28;20308;-73
2022/05/26 03:18:42;;;;;;;0.00;0.00;;;15.60;99.90;;;;;;4985045;28;20203;-74
2022/05/26 03:21:10;;;;;;;0.00;0.00;;;15.60;99.90;;;;;;4983015;28;20221;-74
2022/05/26 03:23:38;;;;;;;0.00;0.00;;;15.60;99.90;;;;;;4978624;28;20251;-74
2022/05/26 03:26:06;;;;;;;0.00;0.00;;;15.60;99.90;;;;;;4983305;28;20648;-74
2022/05/26 03:28:33;;;;;;;0.00;0.00;;;15.60;99.90;;;;;;4982184;28;20220;-74
2022/05/26 03:31:00;;;;;;;0.00;0.00;;;15.60;99.90;;;;;;4987967;28;20279;-74
2022/05/26 03:40:45;;;;;;;0.00;0.00;;;15.60;99.90;;;;;;4983966;28;20248;-74
2022/05/26 03:41:47;;;;;;;0.00;0.00;;;15.50;99.90;;;;;;4984475;28;20212;-73
2022/05/26 03:44:14;;;;;;;0.00;0.00;;;;;;;;;;4985954;28;20203;-73
2022/05/26 03:46:41;;;;;;;0.00;0.00;;;;;;;;;;4984204;28;20201;-74
2022/05/26 03:49:09;;;;;;;0.00;0.00;;;;;;;;;;4983434;28;20204;-74
2022/05/26 03:51:38;;;;;;;0.00;0.00;;;;;;;;;;4984119;28;20197;-73
2022/05/26 03:54:05;;;;;;;0.00;0.00;;;;;;;;;;4999043;28;20299;-74
2022/05/26 03:56:33;;;;;;;0.00;0.00;;;;;;;;;;4982390;28;20271;-74
2022/05/26 03:59:00;;;;;;;0.00;0.00;;;;;;;;;;4984457;28;20217;-73
2022/05/26 04:01:28;;;;;;;0.00;0.00;;;;;;;;;;4984377;28;20209;-73
2022/05/26 04:03:56;;;;;;;0.00;0.00;;;;;;;;;;4985062;28;20300;-74
2022/05/26 04:06:23;;;;;;;0.00;0.00;;;;;;;;;;4982214;28;20206;-74
2022/05/26 04:08:52;;;;;;;0.00;0.00;;;;;;;;;;4982847;28;20213;-74
2022/05/26 04:11:21;;;;;;;0.00;0.00;;;;;;;;;;4983237;28;20871;-74
2022/05/26 04:13:48;;;;;;;0.00;0.00;;;;;;;;;;4981307;28;20193;-74
2022/05/26 04:16:15;;;;;;;0.00;0.00;;;;;;;;;;4980350;28;20240;-74
2022/05/26 04:18:43;;;;;;;0.00;0.00;;;;;;;;;;4982226;28;20205;-74
2022/05/26 04:21:12;;;;;;;0.00;0.00;;;;;;;;;;4982679;28;20232;-73
2022/05/26 04:23:39;;;;;;;0.00;0.00;;;;;;;;;;4984712;28;20237;-74
2022/05/26 04:26:09;;;;;;;0.00;0.00;;;;;;;;;;4976880;28;20248;-73
2022/05/26 04:28:36;;;;;;;0.00;0.00;;;;;;;;;;4986376;28;20209;-73
2022/05/26 04:31:04;;;;;;;0.00;0.00;;;;;;;;;;4991962;28;20259;-74
2022/05/26 04:33:32;;;;;;;0.00;0.00;;;;;;;;;;4989415;28;20208;-73
2022/05/26 04:36:00;;;;;;;0.00;0.00;;;;;;;;;;4986706;28;20252;-73
2022/05/26 04:38:27;;;;;;;0.10;0.10;;;;;;;;;;4990999;28;20232;-73
2022/05/26 04:40:58;;;;;;;0.00;0.00;;;;;;;;;;4983367;28;20229;-73
2022/05/26 04:43:27;;;;;;;0.00;0.00;;;;;;;;;;4990004;28;20283;-73
2022/05/26 04:45:55;;;;;;;0.00;0.00;;;;;;;;;;4989182;28;20222;-73
2022/05/26 04:48:22;;;;;;;0.00;0.00;;;;;;;;;;4989772;28;20326;-73
2022/05/26 04:50:50;;;;;;;0.00;0.00;;;;;;;;;;4993496;28;20315;-74
2022/05/26 04:53:17;;;;;;;0.00;0.00;;;;;;;;;;4986926;28;20300;-74
2022/05/26 04:55:46;;;;;;;0.00;0.00;;;;;;;;;;5002396;28;20229;-73
2022/05/26 04:58:13;;;;;;;0.00;0.00;;;;;;;;;;4985873;28;20209;-73
2022/05/26 05:00:42;;;;;;;0.00;0.00;;;;;;;;;;4985546;28;20746;-73
2022/05/26 05:03:09;;;;;;;0.00;0.00;;;;;;;;;;4986057;28;20209;-73
2022/05/26 05:05:37;;;;;;;0.00;0.00;;;;;;;;;;4987094;28;20232;-73
2022/05/26 05:08:04;;;;;;;0.00;0.00;;;;;;;;;;4985365;28;20209;-73
2022/05/26 05:10:32;;;;;;;0.00;0.00;;;;;;;;;;4985566;28;20358;-73
2022/05/26 05:13:00;;;;;;;0.00;0.00;;;;;;;;;;4986671;28;20228;-74
2022/05/26 05:15:29;;;;;;;0.00;0.00;;;;;;;;;;4984876;28;20694;-74
2022/05/26 05:17:58;;;;;;;0.00;0.00;;;;;;;;;;4985771;28;20209;-74
2022/05/26 05:20:26;;;;;;;0.00;0.00;;;;;;;;;;4987464;28;20221;-74
2022/05/26 05:22:55;;;;;;;0.00;0.00;;;;;;;;;;4985549;28;20217;-73
2022/05/26 05:25:24;;;;;;;0.00;0.00;;;;;;;;;;4984793;28;20205;-74
2022/05/26 05:27:53;;;;;;;0.10;0.10;;;;;;;;;;4985982;28;20293;-74
2022/05/26 05:30:23;;;;;;;0.00;0.00;;;;;;;;;;4987294;28;20228;-74
2022/05/26 05:32:53;;;;;;;0.00;0.00;;;;;;;;;;4985596;28;20228;-74
2022/05/26 05:35:26;;;;;;;0.00;0.00;;;;;;;;;;4983652;28;20220;-74
2022/05/26 05:37:53;;;;;;;0.00;0.00;;;;;;;;;;4985186;28;20202;-74
2022/05/26 05:40:23;;;;;;;0.00;0.00;;;;;;;;;;4984015;28;20240;-74
2022/05/26 05:42:50;;;;;;;0.00;0.00;;;;;;;;;;4980490;28;20209;-74
2022/05/26 05:45:18;;;;;;;0.00;0.00;;;;;;;;;;4987506;28;20212;-74
2022/05/26 05:47:45;;;;;;;0.00;0.00;;;;;;;;;;4987020;28;20240;-74
2022/05/26 05:50:12;;;;;;;0.00;0.00;;;17.20;99.90;;;;;;4985609;28;20319;-74
2022/05/26 05:52:41;;;;;;;0.00;0.00;;;17.60;99.90;;;;;;4985261;28;20431;-75
2022/05/26 05:55:09;;;;;;;0.00;0.00;;;17.80;99.90;;;;;;4984771;28;20280;-74
2022/05/26 05:57:36;;;;;;;0.00;0.00;;;18.00;99.90;;;;;;4982446;28;20699;-73
2022/05/26 06:00:05;;;;;;;0.00;0.00;;;17.90;99.90;;;;;;4983494;28;20240;-75
2022/05/26 06:02:33;;;;;;;0.00;0.00;;;17.80;99.90;;;;;;4986070;28;20206;-75
2022/05/26 06:05:00;;;;;;;0.00;0.00;;;17.80;99.90;;;;;;4982943;28;20221;-75
2022/05/26 06:07:27;;;;;;;0.00;0.00;;;17.70;99.90;;;;;;4992920;28;20279;-75
2022/05/26 06:09:55;;;;;;;0.00;0.00;;;17.60;99.90;;;;;;4983066;28;20321;-74
2022/05/26 06:12:23;;;;;;;0.00;0.00;;;17.60;99.90;;;;;;4982511;28;20201;-73
2022/05/26 06:14:50;;;;;;;0.00;0.00;;;17.50;99.90;;;;;;4986321;28;20296;-74
2022/05/26 06:17:17;;;;;;;0.00;0.00;;;17.30;99.90;;;;;;4989655;28;20212;-74
2022/05/26 06:19:45;;;;;;;0.00;0.00;;;17.10;99.90;;;;;;4987799;28;20225;-74
2022/05/26 06:22:14;;;;;;;0.00;0.00;;;17.00;99.90;;;;;;4987283;28;20248;-74
2022/05/26 06:24:42;;;;;;;0.00;0.00;;;17.00;99.90;;;;;;4983843;28;20659;-73
2022/05/26 06:29:58;;;;;;;0.00;0.00;;;17.00;99.90;;;;;;4982661;28;20228;-73
2022/05/26 06:37:57;;;;;;;0.00;0.00;;;17.30;99.90;;;;;;4995375;28;20197;-74
2022/05/26 06:40:25;;;;;;;0.00;0.00;;;17.30;99.90;;;;;;4982897;28;20229;-74
2022/05/26 06:42:53;;;;;;;0.00;0.00;;;17.40;99.90;;;;;;4976522;28;20619;-74
2022/05/26 06:45:20;;;;;;;0.00;0.00;;;17.40;99.90;;;;;;4986965;28;20200;-73
2022/05/26 06:47:47;;;;;;;0.00;0.00;;;17.50;99.90;;;;;;4990125;28;20212;-76
2022/05/26 06:50:15;;;;;;;0.00;0.00;;;17.60;99.90;;;;;;4979563;28;20213;-75
2022/05/26 06:52:42;;;;;;;0.00;0.00;;;17.70;99.90;;;;;;4986878;28;20749;-76
2022/05/26 06:55:10;;;;;;;0.00;0.00;;;17.80;99.90;;;;;;4992941;28;20202;-75
2022/05/26 06:57:37;;;;;;;0.00;0.00;;;17.90;99.90;;;;;;4983245;28;20241;-75
2022/05/26 07:00:08;;;;;;;0.00;0.00;;;18.10;99.90;;;;;;4982879;28;20220;-75
2022/05/26 07:02:37;;;;;;;0.00;0.00;;;18.10;99.90;;;;;;4985253;28;20201;-75
2022/05/26 07:05:05;;;;;;;0.00;0.00;;;18.30;99.90;;;;;;4979677;28;20198;-75
2022/05/26 07:07:35;;;;;;;0.00;0.00;;;18.50;99.90;;;;;;4983965;28;20276;-75
2022/05/26 07:10:03;;;;;;;0.00;0.00;;;18.80;99.90;;;;;;4986309;28;20229;-75
2022/05/26 07:12:30;;;;;;;0.00;0.00;;;19.10;99.90;;;;;;4985481;28;20197;-75
2022/05/26 07:14:56;;;;;;;0.00;0.00;;;19.10;99.90;;;;;;4991086;28;20227;-75
2022/05/26 07:17:25;;;;;;;0.00;0.00;;;19.10;99.90;;;;;;4985077;28;20257;-76
2022/05/26 07:19:53;;;;;;;0.00;0.00;;;19.20;99.90;;;;;;4988928;28;20216;-75
2022/05/26 07:22:20;;;;;;;0.00;0.00;;;19.30;99.90;;;;;;4994553;28;20209;-74
2022/05/26 07:24:49;;;;;;;0.00;0.00;;;19.30;99.90;;;;;;4985092;28;20201;-75
2022/05/26 07:27:17;;;;;;;0.00;0.00;;;19.40;99.90;;;;;;4983560;28;20197;-76
2022/05/26 07:29:44;;;;;;;0.00;0.00;;;;;;;;;;4984550;28;20236;-75
2022/05/26 07:32:12;;;;;;;0.00;0.00;;;;;;;;;;4985707;28;20232;-73
2022/05/26 07:34:40;;;;;;;0.00;0.00;;;;;;;;;;4983768;28;20208;-75
2022/05/26 07:42:46;;;;;;;0.00;0.00;;;;;;;;;;4978562;28;20288;-76
2022/05/26 07:45:14;;;;;;;0.00;0.00;;;;;;;;;;4986457;28;20193;-75
2022/05/26 07:47:42;;;;;;;0.00;0.00;;;;;;;;;;4986505;28;20205;-76
2022/05/26 07:50:19;;;;;;;0.00;0.00;;;;;;;;;;4986044;28;20311;-76
2022/05/26 07:52:48;;;;;;;0.00;0.00;;;;;;;;;;4985710;28;20227;-75
2022/05/26 07:55:15;;;;;;;0.00;0.00;;;;;;;;;;4989019;28;20200;-75
2022/05/26 07:57:43;;;;;;;0.00;0.00;;;;;;;;;;4985946;28;20233;-74
2022/05/26 08:00:10;;;;;;;0.00;0.00;;;;;;;;;;4986914;28;20233;-75
2022/05/26 08:02:41;;;;;;;0.00;0.00;;;;;;;;;;4983276;28;20205;-75
2022/05/26 08:05:10;;;;;;;0.00;0.00;;;;;;;;;;4984590;28;20216;-76
2022/05/26 08:07:38;;;;;;;0.00;0.00;;;;;;;;;;4980033;28;20682;-76
2022/05/26 08:10:05;;;;;;;0.00;0.00;;;;;;;;;;4982436;28;20791;-76
2022/05/26 08:12:33;;;;;;;0.00;0.00;;;;;;;;;;4978814;28;20206;-75
2022/05/26 08:15:00;;;;;;;0.00;0.00;;;;;;;;;;4980234;28;20200;-75
2022/05/26 08:17:28;;;;;;;0.00;0.00;;;;;;;;;;4982528;28;20209;-76
2022/05/26 08:19:55;;;;;;;0.00;0.00;;;;;;;;;;4981833;28;20229;-75
2022/05/26 08:22:24;;;;;;;0.00;0.00;;;;;;;;;;4982437;28;20197;-75
2022/05/26 08:24:52;;;;;;;0.00;0.00;;;;;;;;;;4978884;28;20197;-75
2022/05/26 08:27:20;;;;;;;0.00;0.00;;;;;;;;;;4982477;28;20224;-75
2022/05/26 08:29:49;;;;;;;0.00;0.00;;;;;;;;;;4977290;28;20233;-75
2022/05/26 08:32:17;;;;;;;0.00;0.00;;;;;;;;;;4984462;28;20273;-76
2022/05/26 08:34:44;;;;;;;0.00;0.00;;;;;;;;;;4987048;28;20215;-76
2022/05/26 08:37:14;;;;;;;0.00;0.00;;;;;;;;;;4982498;28;20291;-75
2022/05/26 08:39:43;;;;;;;0.00;0.00;;;;;;;;;;4986419;28;20229;-75
2022/05/26 08:42:13;;;;;;;0.00;0.00;;;;;;;;;;4976906;28;20205;-75
2022/05/26 08:44:42;;;;;;;0.00;0.00;;;;;;;;;;4979106;28;20201;-75
2022/05/26 08:47:10;;;;;;;0.00;0.00;;;;;;;;;;4990940;28;20273;-77
2022/05/26 08:49:40;;;;;;;0.00;0.00;;;;;;;;;;4988241;28;20225;-76
2022/05/26 08:52:10;;;;;;;0.00;0.00;;;;;;;;;;4994361;28;20296;-76
2022/05/26 08:54:40;;;;;;;0.00;0.00;;;21.80;99.90;;;;;;4986503;28;20252;-78
2022/05/26 08:57:13;;;;;;;0.00;0.00;;;21.90;99.90;;;;;;5003804;28;20220;-75
2022/05/26 08:59:44;;;;;;;0.00;0.00;;;22.00;99.90;;;;;;4970137;28;20236;-75
2022/05/26 09:02:22;;;;;;;0.00;0.00;;;22.00;99.90;;;;;;5002822;28;20203;-75
2022/05/26 09:04:49;;;;;;;0.00;0.00;;;21.90;99.90;;;;;;4973963;28;20232;-75
2022/05/26 09:13:02;;;;;;;0.00;0.00;;;21.20;99.90;;;;;;4988988;28;20231;-77
2022/05/26 09:15:31;;;;;;;0.00;0.00;;;21.00;99.90;;;;;;4987156;28;20296;-77
2022/05/26 09:17:57;;;;;;;0.00;0.00;;;20.80;99.90;;;;;;4992874;28;20213;-77
2022/05/26 09:20:32;;;;;;;0.00;0.00;;;20.70;99.90;;;;;;4989488;28;20233;-76
2022/05/26 09:23:12;;;;;;;0.00;0.00;;;20.60;99.90;;;;;;4990799;28;20197;-76
2022/05/26 09:25:47;;;;;;;0.00;0.00;;;20.60;99.90;;;;;;4987997;28;20212;-75
2022/05/26 09:28:27;;;;;;;0.00;0.00;;;20.70;99.90;;;;;;4985566;28;20197;-76
2022/05/26 09:30:55;;;;;;;0.00;0.00;;;20.90;99.90;;;;;;4992945;28;20282;-76
2022/05/26 09:33:30;;;;;;;0.00;0.00;;;21.10;99.90;;;;;;4987323;28;20209;-76
2022/05/26 09:36:15;;;;;;;0.00;0.00;;;21.40;99.90;;;;;;4983390;28;20690;-75
2022/05/26 09:38:44;;;;;;;0.00;0.00;;;21.50;99.90;;;;;;4992915;28;20201;-76
2022/05/26 09:41:16;;;;;;;0.00;0.00;;;21.40;99.90;;;;;;4991288;28;20274;-76
2022/05/26 09:43:50;;;;;;;0.00;0.00;;;21.60;99.90;;;;;;4993779;28;20204;-76
2022/05/26 09:46:18;;;;;;;0.00;0.00;;;21.80;99.90;;;;;;4983264;28;20305;-76
2022/05/26 09:48:47;;;;;;;0.00;0.00;;;21.90;99.90;;;;;;4988789;28;20233;-76
2022/05/26 09:51:22;;;;;;;0.00;0.00;;;22.00;99.90;;;;;;4997964;28;20319;-75
2022/05/26 09:53:51;;;;;;;0.00;0.00;;;22.00;99.90;;;;;;4993931;28;20193;-75
2022/05/26 09:56:29;;;;;;;0.00;0.00;;;21.90;99.90;;;;;;4996270;28;20283;-75
2022/05/26 09:58:58;;;;;;;0.00;0.00;;;21.60;99.90;;;;;;4991176;28;20303;-75
2022/05/26 10:01:41;;;;;;;0.00;0.00;;;21.40;99.90;;;;;;5000191;28;20271;-74
2022/05/26 10:04:21;;;;;;;0.00;0.00;;;21.10;99.90;;;;;;4992935;28;20264;-74
2022/05/26 10:06:56;;;;;;;0.00;0.00;;;20.90;99.90;;;;;;4983053;28;20197;-75
2022/05/26 10:09:31;;;;;;;0.00;0.00;;;20.60;99.90;;;;;;4991521;28;20690;-74
2022/05/26 10:12:08;;;;;;;0.00;0.00;;;20.50;99.90;;;;;;4991192;28;20209;-74
2022/05/26 10:14:50;;;;;;;0.00;0.00;;;20.30;99.90;;;;;;4993658;28;20215;-76
2022/05/26 10:17:30;;;;;;;0.00;0.00;;;20.10;99.90;;;;;;4990056;28;20209;-75
2022/05/26 10:20:18;;;;;;;0.00;0.00;;;20.10;99.90;;;;;;4987468;28;20221;-75
2022/05/26 10:22:52;;;;;;;0.00;0.00;;;20.10;99.90;;;;;;4987346;28;20197;-75
2022/05/26 10:25:26;;;;;;;0.00;0.00;;;20.00;99.90;;;;;;4991385;28;20201;-75
2022/05/26 10:28:05;;;;;;;0.00;0.00;;;19.90;99.90;;;;;;4989244;28;20209;-74
2022/05/26 10:30:45;;;;;;;0.00;0.00;;;19.90;99.90;;;;;;4995754;28;20231;-73
2022/05/26 10:33:38;;;;;;;0.00;0.00;;;19.80;99.90;;;;;;4986294;28;20201;-74
2022/05/26 10:36:19;;;;;;;0.00;0.00;;;19.80;99.90;;;;;;4989531;28;20208;-74
2022/05/26 10:39:02;;;;;;;0.00;0.00;;;19.80;99.90;;;;;;4987473;28;20207;-74
2022/05/26 10:41:35;;;;;;;0.00;0.00;;;19.90;99.90;;;;;;4993072;28;20213;-74
2022/05/26 10:44:10;;;;;;;0.00;0.00;;;20.30;99.90;;;;;;4988388;28;20236;-73
2022/05/26 10:46:44;;;;;;;0.00;0.00;;;20.80;99.90;;;;;;4993635;28;20576;-73
2022/05/26 10:49:14;;;;;;;0.00;0.00;;;;;;;;;;4984457;28;20205;-79
2022/05/26 10:51:45;;;;;;;0.00;0.00;;;21.30;99.90;;;;;;4988444;28;20197;-73
2022/05/26 10:54:15;;;;;;;0.00;0.00;;;22.00;99.90;;;;;;4990036;28;20223;-75
2022/05/26 10:56:47;;;;;;;0.00;0.00;;;22.20;99.90;;;;;;4995625;28;20236;-75
2022/05/26 10:59:19;;;;;;;0.00;0.00;;;22.60;99.90;;;;;;4989395;28;20216;-75
2022/05/26 11:01:53;;;;;;;0.00;0.00;;;22.70;99.90;;;;;;4984407;28;20212;-76
2022/05/26 11:04:26;;;;;;;0.00;0.00;;;23.00;99.90;;;;;;4986689;28;20272;-79
2022/05/26 11:06:56;;;;;;;0.00;0.00;;;;;;;;;;4982073;28;20232;-75
2022/05/26 11:09:34;;;;;;;0.00;0.00;;;23.30;99.90;;;;;;4984171;28;20196;-76
2022/05/26 11:12:02;;;;;;;0.00;0.00;;;;;;;;;;4982621;28;20193;-74
2022/05/26 11:17:42;;;;;;;0.00;0.00;;;23.30;99.90;;;;;;4984469;28;20224;-74
2022/05/26 11:20:15;;;;;;;0.00;0.00;;;23.00;99.90;;;;;;4984639;28;20313;-73
2022/05/26 11:22:45;;;;;;;0.00;0.00;;;22.70;99.90;;;;;;4983690;28;20200;-73
2022/05/26 11:25:15;;;;;;;0.00;0.00;;;22.50;99.90;;;;;;4989593;28;20276;-74
2022/05/26 11:27:49;;;;;;;0.00;0.00;;;22.40;99.90;;;;;;4991514;28;20723;-74
2022/05/26 11:36:10;;;;;;;0.00;0.00;;;22.90;99.90;;;;;;4979017;28;20209;-76
2022/05/26 11:38:43;;;;;;;0.00;0.00;;;23.20;99.90;;;;;;4986042;28;20228;-75
2022/05/26 11:41:12;;;;;;;0.00;0.00;;;;;;;;;;4979305;28;20312;-76
2022/05/26 11:43:42;;;;;;;0.00;0.00;;;;;;;;;;4982498;28;20251;-76
2022/05/26 11:46:10;;;;;;;0.00;0.00;;;23.40;99.90;;;;;;4984443;28;20197;-76
2022/05/26 11:48:45;;;;;;;0.00;0.00;;;23.40;99.90;;;;;;4982792;28;20211;-75
2022/05/26 11:51:39;;;;;;;0.00;0.00;;;23.30;99.90;;;;;;4989561;28;20231;-75
2022/05/26 11:54:07;;;;;;;0.00;0.00;;;23.40;99.90;;;;;;4991353;28;20492;-76
2022/05/26 11:56:45;;;;;;;0.00;0.00;;;23.50;99.90;;;;;;4991630;28;20224;-77
2022/05/26 11:59:43;;;;;;;0.00;0.00;;;23.60;99.90;;;;;;4988872;28;20216;-77
2022/05/26 12:02:25;;;;;;;0.00;0.00;;;;;;;;;;4984103;28;20293;-77
2022/05/26 12:04:54;;;;;;;0.00;0.00;;;;;;;;;;4977135;28;20205;-76
2022/05/26 12:07:38;;;;;;;0.00;0.00;;;;;;;;;;4981793;28;20240;-77
2022/05/26 12:10:16;;;;;;;0.00;0.00;;;;;;;;;;4977740;28;20252;-78
2022/05/26 12:12:43;;;;;;;0.00;0.00;;;;;;;;;;4976723;28;20323;-78
2022/05/26 12:15:19;;;;;;;0.00;0.00;;;22.40;99.90;;;;;;4979548;28;20291;-77
2022/05/26 12:17:48;;;;;;;0.00;0.00;;;;;;;;;;4977929;28;20235;-76
2022/05/26 12:20:37;;;;;;;0.00;0.00;;;22.40;99.90;;;;;;4978025;28;20231;-78
2022/05/26 12:23:28;;;;;;;0.00;0.00;;;22.90;99.90;;;;;;4983946;28;20221;-78
2022/05/26 12:26:15;;;;;;;0.00;0.00;;;;;;;;;;4981197;28;20201;-79
2022/05/26 12:28:42;;;;;;;0.00;0.00;;;23.00;99.90;;;;;;4977574;28;20313;-78
2022/05/26 12:31:09;;;;;;;0.00;0.00;;;22.90;99.90;;;;;;4982977;28;20276;-78
2022/05/26 12:33:44;;;;;;;0.00;0.00;;;;;;;;;;4980652;28;20206;-78
2022/05/26 12:36:18;;;;;;;0.00;0.00;;;;;;;;;;4985072;28;20765;-79
2022/05/26 12:38:51;;;;;;;0.00;0.00;;;;;;;;;;4989796;28;20237;-79
2022/05/26 12:41:28;;;;;;;0.00;0.00;;;22.60;99.90;;;;;;4980610;28;20226;-79
2022/05/26 12:44:21;;;;;;;0.00;0.00;;;22.70;99.90;;;;;;4983381;28;20209;-79
2022/05/26 12:47:01;;;;;;;0.00;0.00;;;22.70;99.90;;;;;;4971698;28;20231;-79
2022/05/26 12:49:45;;;;;;;0.00;0.00;;;22.80;99.90;;;;;;4983991;28;20244;-78
2022/05/26 12:52:19;;;;;;;0.00;0.00;;;22.80;99.90;;;;;;4986543;28;20197;-77
2022/05/26 12:54:51;;;;;;;0.00;0.00;;;22.90;99.90;;;;;;4987837;28;20205;-79
2022/05/26 12:57:24;;;;;;;0.00;0.00;;;22.80;99.90;;;;;;4986068;28;20221;-78
2022/05/26 12:59:51;;;;;;;0.00;0.00;;;22.80;99.90;;;;;;4989493;28;20225;-78
2022/05/26 13:02:28;;;;;;;0.00;0.00;;;22.80;99.90;;;;;;4988393;28;20205;-78
2022/05/26 13:04:56;;;;;;;0.00;0.00;;;22.80;99.90;;;;;;4990054;28;20272;-78
2022/05/26 13:07:25;;;;;;;0.00;0.00;;;22.90;99.90;;;;;;4980462;28;20216;-78
2022/05/26 13:09:53;;;;;;;0.00;0.00;;;;;;;;;;4987626;28;20320;-78
2022/05/26 13:12:23;;;;;;;0.00;0.00;;;23.10;99.90;;;;;;4989709;28;20248;-76
2022/05/26 13:14:53;;;;;;;0.00;0.00;;;23.00;99.90;;;;;;4985291;28;20209;-76
2022/05/26 13:17:22;;;;;;;0.00;0.00;;;;;;;;;;4985960;28;20351;-76
2022/05/26 13:19:52;;;;;;;0.00;0.00;;;23.00;99.90;;;;;;4987379;28;20228;-76
2022/05/26 13:22:21;;;;;;;0.00;0.00;;;;;;;;;;4984760;28;20221;-76
2022/05/26 13:24:53;;;;;;;0.00;0.00;;;22.70;99.90;;;;;;4986351;28;20252;-76
2022/05/26 13:27:20;;;;;;;0.00;0.00;;;22.50;99.90;;;;;;4984505;28;20209;-76
2022/05/26 13:29:51;;;;;;;0.00;0.00;;;22.50;99.90;;;;;;4987359;28;20303;-77
2022/05/26 13:35:16;;;;;;;0.00;0.00;;;22.50;99.90;;;;;;4937109;28;20202;-77
2022/05/26 13:37:44;;;;;;;0.00;0.00;;;22.60;99.90;;;;;;4985014;28;20213;-77
2022/05/26 13:40:16;;;;;;;0.00;0.00;;;;;;;;;;4984924;28;20217;-77
2022/05/26 13:42:45;;;;;;;0.00;0.00;;;22.60;99.90;;;;;;4984016;28;20205;-76
2022/05/26 13:45:21;;;;;;;0.00;0.00;;;22.50;99.90;;;;;;4986509;28;20198;-77
2022/05/26 13:47:48;;;;;;;0.00;0.00;;;22.50;99.90;;;;;;4980732;28;20208;-77
2022/05/26 13:50:15;;;;;;;0.00;0.00;;;;;;;;;;4985978;28;20237;-77
2022/05/26 13:52:47;;;;;;;0.00;0.00;;;22.30;99.90;;;;;;4985072;28;20288;-76
2022/05/26 13:55:23;;;;;;;0.00;0.00;;;22.50;99.90;;;;;;4986861;28;20216;-76
2022/05/26 13:57:54;;;;;;;0.00;0.00;;;22.50;99.90;;;;;;4980969;28;20239;-77
2022/05/26 14:00:28;;;;;;;0.00;0.00;;;22.60;99.90;;;;;;4985343;28;20236;-76
2022/05/26 14:02:58;;;;;;;0.00;0.00;;;22.60;99.90;;;;;;4984768;28;20216;-76
2022/05/26 14:05:27;;;;;;;0.00;0.00;;;22.50;99.90;;;;;;4984611;28;20199;-77
2022/05/26 14:08:07;;;;;;;0.00;0.00;;;22.50;99.90;;;;;;4984276;28;20193;-76
2022/05/26 14:10:48;;;;;;;0.00;0.00;;;22.40;99.90;;;;;;4984852;28;20231;-76
2022/05/26 14:13:32;;;;;;;0.00;0.00;;;22.10;99.90;;;;;;4984095;28;20251;-77
2022/05/26 14:16:18;;;;;;;0.00;0.00;;;21.90;99.90;;;;;;4987396;28;20196;-77
2022/05/26 14:18:49;;;;;;;0.00;0.00;;;21.60;99.90;;;;;;4980659;28;20226;-76
2022/05/26 14:21:20;;;;;;;0.00;0.00;;;;;;;;;;4980889;28;20225;-78
2022/05/26 14:23:51;;;;;;;0.00;0.00;;;22.40;99.90;;;;;;4986290;28;20205;-77
2022/05/26 14:26:40;;;;;;;0.00;0.00;;;;;;;;;;4980210;28;20253;-76